Time;durP1;ratioP1;P1;durP2;ratioP2;P2;SDS_P1;SDS_P2;PMS_P1;PMS_P2;Temp;Humidity;BMP_temperature;BMP_pressure;BME280_temperature;BME280_humidity;BME280_pressure;Samples;Min_cycle;Max_cycle;Signal;HPM_P1;HPM_P2
2023/06/19 00:00:16;;;;;;;5.87;5.37;;;22.20;97.30;;;;;;5049726;28;20462;-75
2023/06/19 00:02:43;;;;;;;5.30;4.77;;;22.20;96.60;;;;;;5049610;28;20458;-75
2023/06/19 00:05:11;;;;;;;5.80;4.97;;;22.20;96.70;;;;;;5049898;28;20459;-75
2023/06/19 00:07:38;;;;;;;6.53;5.17;;;22.20;97.00;;;;;;5049254;28;20456;-75
2023/06/19 00:10:05;;;;;;;6.13;5.00;;;22.20;96.90;;;;;;5049665;28;20490;-74
2023/06/19 00:12:32;;;;;;;5.43;4.93;;;22.10;96.70;;;;;;5049372;28;20550;-74
2023/06/19 00:14:59;;;;;;;5.67;5.17;;;22.20;96.50;;;;;;5049376;28;20947;-75
2023/06/19 00:17:27;;;;;;;5.37;4.90;;;22.20;96.90;;;;;;5049533;28;20456;-75
2023/06/19 00:19:54;;;;;;;6.20;5.20;;;22.20;97.00;;;;;;5049568;28;20497;-75
2023/06/19 00:22:21;;;;;;;4.93;4.53;;;22.20;97.00;;;;;;5049030;28;20463;-75
2023/06/19 00:24:48;;;;;;;5.93;5.30;;;22.10;97.60;;;;;;5049499;28;20487;-75
2023/06/19 00:27:15;;;;;;;5.37;4.87;;;22.10;97.80;;;;;;5049643;28;20960;-75
2023/06/19 00:29:41;;;;;;;5.20;4.60;;;22.10;97.80;;;;;;5049361;28;20480;-75
2023/06/19 00:32:08;;;;;;;5.97;5.27;;;22.00;97.90;;;;;;5049424;28;20467;-74
2023/06/19 00:34:37;;;;;;;6.00;5.50;;;22.00;97.70;;;;;;5049341;28;20473;-74
2023/06/19 00:37:05;;;;;;;5.17;4.43;;;21.90;97.70;;;;;;5049629;28;21013;-75
2023/06/19 00:39:32;;;;;;;5.20;4.47;;;21.90;97.80;;;;;;5049108;28;20487;-74
2023/06/19 00:41:59;;;;;;;5.13;4.60;;;21.90;97.90;;;;;;5049216;28;20994;-75
2023/06/19 00:44:26;;;;;;;5.63;5.13;;;21.90;97.40;;;;;;5049185;28;20464;-74
2023/06/19 00:46:57;;;;;;;6.00;5.00;;;21.80;97.90;;;;;;5049421;28;20829;-74
2023/06/19 00:49:25;;;;;;;5.40;4.90;;;21.80;98.20;;;;;;5049212;28;20492;-74
2023/06/19 00:51:54;;;;;;;5.80;5.27;;;21.80;98.00;;;;;;5049105;28;20998;-74
2023/06/19 00:54:21;;;;;;;4.77;4.27;;;21.80;98.00;;;;;;5049049;28;20883;-74
2023/06/19 00:56:48;;;;;;;10.40;4.90;;;21.70;98.40;;;;;;5048682;28;20476;-74
2023/06/19 00:59:17;;;;;;;5.13;4.70;;;21.70;98.70;;;;;;5049436;28;20475;-74
2023/06/19 01:01:44;;;;;;;5.33;4.90;;;21.60;97.80;;;;;;5048674;28;20487;-74
2023/06/19 01:04:11;;;;;;;5.57;4.70;;;21.60;97.90;;;;;;5049226;28;20539;-74
2023/06/19 01:06:44;;;;;;;4.77;4.37;;;21.60;97.70;;;;;;5049052;28;20463;-74
2023/06/19 01:09:16;;;;;;;5.10;4.60;;;21.70;97.70;;;;;;5049153;28;20479;-74
2023/06/19 01:11:51;;;;;;;4.90;4.40;;;21.70;97.70;;;;;;5048736;28;20499;-74
2023/06/19 01:14:22;;;;;;;4.87;4.47;;;21.70;97.90;;;;;;5049075;28;20980;-75
2023/06/19 01:16:49;;;;;;;4.37;4.03;;;21.70;98.10;;;;;;5049159;28;20485;-74
2023/06/19 01:19:20;;;;;;;4.63;4.23;;;21.60;98.10;;;;;;5034856;28;20480;-74
2023/06/19 01:21:47;;;;;;;6.43;5.67;;;21.60;97.80;;;;;;5032407;28;20465;-74
2023/06/19 01:24:15;;;;;;;5.13;4.57;;;21.60;97.60;;;;;;5032463;28;20468;-74
2023/06/19 01:26:45;;;;;;;4.90;4.20;;;21.60;96.90;;;;;;5032618;28;20468;-74
2023/06/19 01:29:13;;;;;;;4.23;3.83;;;21.60;96.90;;;;;;5033091;28;20518;-74
2023/06/19 01:31:56;;;;;;;5.10;3.90;;;21.70;96.70;;;;;;5032328;28;21180;-74
2023/06/19 01:34:26;;;;;;;4.73;4.33;;;21.70;96.80;;;;;;5032581;28;20465;-74
2023/06/19 01:36:56;;;;;;;4.20;3.83;;;21.80;96.90;;;;;;5032648;28;20835;-73
2023/06/19 01:39:26;;;;;;;4.60;4.20;;;21.80;97.00;;;;;;5032588;28;20487;-74
2023/06/19 01:41:55;;;;;;;4.53;4.13;;;21.70;97.00;;;;;;5025175;28;20870;-74
2023/06/19 01:44:22;;;;;;;4.23;3.83;;;21.70;96.90;;;;;;5032493;28;20991;-74
2023/06/19 01:46:50;;;;;;;4.50;4.10;;;21.80;97.00;;;;;;5032368;28;20457;-73
2023/06/19 01:49:16;;;;;;;4.40;4.00;;;21.70;97.00;;;;;;5032640;28;20491;-74
2023/06/19 01:51:43;;;;;;;4.57;4.17;;;21.70;97.20;;;;;;5032116;28;20465;-74
2023/06/19 01:54:10;;;;;;;4.20;3.80;;;21.70;97.20;;;;;;5032240;28;20449;-74
2023/06/19 01:56:38;;;;;;;6.17;4.03;;;21.70;97.50;;;;;;5031601;28;20480;-74
2023/06/19 01:59:05;;;;;;;4.20;3.90;;;21.60;97.60;;;;;;5032215;28;20488;-74
2023/06/19 02:01:32;;;;;;;4.13;3.73;;;21.60;97.80;;;;;;5031839;28;20495;-74
2023/06/19 02:03:58;;;;;;;5.30;3.50;;;21.60;98.10;;;;;;5031714;28;20822;-74
2023/06/19 02:06:25;;;;;;;4.60;4.20;;;21.60;98.30;;;;;;5031940;28;20467;-74
2023/06/19 02:08:52;;;;;;;3.90;3.60;;;21.60;98.40;;;;;;5023849;28;20854;-74
2023/06/19 02:11:19;;;;;;;4.40;4.00;;;21.60;98.60;;;;;;5031846;28;20474;-74
2023/06/19 02:13:47;;;;;;;3.80;3.50;;;21.60;98.80;;;;;;5031267;28;20468;-74
2023/06/19 02:16:13;;;;;;;4.00;3.70;;;21.60;98.80;;;;;;5031910;28;20490;-74
2023/06/19 02:18:40;;;;;;;3.90;3.60;;;21.60;99.00;;;;;;5031352;28;20493;-74
2023/06/19 02:21:07;;;;;;;3.60;3.30;;;21.60;99.20;;;;;;5031767;28;20479;-74
2023/06/19 02:23:34;;;;;;;3.97;3.57;;;21.60;99.10;;;;;;5031218;28;20487;-74
2023/06/19 02:26:00;;;;;;;4.93;3.67;;;21.60;99.20;;;;;;5032036;28;20482;-74
2023/06/19 02:28:27;;;;;;;4.23;3.83;;;21.60;99.20;;;;;;5031541;28;20491;-74
2023/06/19 02:30:56;;;;;;;4.17;3.60;;;21.60;99.20;;;;;;5030948;28;20471;-74
2023/06/19 02:33:22;;;;;;;3.70;3.40;;;21.60;99.20;;;;;;5031492;28;20841;-74
2023/06/19 02:35:49;;;;;;;4.23;3.83;;;21.50;99.20;;;;;;5030980;28;20925;-74
2023/06/19 02:38:18;;;;;;;3.47;3.17;;;21.50;99.40;;;;;;5031474;28;20481;-74
2023/06/19 02:40:45;;;;;;;3.33;3.10;;;21.50;99.40;;;;;;5030827;28;20494;-73
2023/06/19 02:43:11;;;;;;;3.90;3.60;;;21.50;99.60;;;;;;5031326;28;20463;-73
2023/06/19 02:45:38;;;;;;;4.37;3.50;;;21.40;99.50;;;;;;5031078;28;20460;-74
2023/06/19 02:48:06;;;;;;;3.63;3.23;;;21.50;99.70;;;;;;5031173;28;20488;-74
2023/06/19 02:50:34;;;;;;;4.63;3.50;;;21.50;99.80;;;;;;5030380;28;20491;-73
2023/06/19 02:53:00;;;;;;;4.40;2.97;;;21.50;99.80;;;;;;5030651;28;20988;-75
2023/06/19 02:55:27;;;;;;;4.23;3.33;;;21.40;99.90;;;;;;5031206;28;20467;-73
2023/06/19 02:57:54;;;;;;;3.47;3.17;;;21.40;99.80;;;;;;5022131;28;20482;-74
2023/06/19 03:00:21;;;;;;;5.00;3.40;;;21.40;99.90;;;;;;5030931;28;20457;-74
2023/06/19 03:02:48;;;;;;;2.90;2.60;;;21.40;99.90;;;;;;5030407;28;20468;-74
2023/06/19 03:05:16;;;;;;;3.50;3.20;;;21.40;99.90;;;;;;5030996;28;20835;-74
2023/06/19 03:07:43;;;;;;;3.50;2.93;;;21.30;99.90;;;;;;5030687;28;20836;-74
2023/06/19 03:10:10;;;;;;;2.90;2.53;;;21.30;99.90;;;;;;5030698;28;20468;-74
2023/06/19 03:12:37;;;;;;;3.00;2.77;;;21.30;99.90;;;;;;5030239;28;20467;-73
2023/06/19 03:15:04;;;;;;;3.20;2.90;;;21.30;99.90;;;;;;5030961;28;20464;-74
2023/06/19 03:17:31;;;;;;;3.40;2.90;;;21.30;99.90;;;;;;5030645;28;20489;-74
2023/06/19 03:19:58;;;;;;;4.00;3.60;;;21.30;99.90;;;;;;5030517;28;20841;-75
2023/06/19 03:22:26;;;;;;;3.23;3.00;;;21.20;99.90;;;;;;5027833;28;20464;-75
2023/06/19 03:24:52;;;;;;;4.53;3.27;;;21.20;99.90;;;;;;5029692;28;20490;-74
2023/06/19 03:27:19;;;;;;;3.50;2.80;;;21.10;99.90;;;;;;5030349;28;20489;-74
2023/06/19 03:29:47;;;;;;;5.43;2.83;;;21.10;99.90;;;;;;5030005;28;20495;-74
2023/06/19 03:32:14;;;;;;;3.67;2.50;;;21.10;99.90;;;;;;5025096;28;20477;-74
2023/06/19 03:34:40;;;;;;;3.10;2.80;;;21.10;99.90;;;;;;5023710;28;20473;-74
2023/06/19 03:37:07;;;;;;;3.03;2.73;;;21.10;99.90;;;;;;5027049;28;20972;-73
2023/06/19 03:39:35;;;;;;;2.73;2.53;;;21.00;99.90;;;;;;5025876;28;20993;-73
2023/06/19 03:42:02;;;;;;;2.80;2.60;;;21.00;99.90;;;;;;5025911;28;20469;-73
2023/06/19 03:44:29;;;;;;;3.20;2.90;;;21.00;99.90;;;;;;5021122;28;20539;-74
2023/06/19 03:46:56;;;;;;;2.87;2.63;;;21.00;99.90;;;;;;5027705;28;20478;-73
2023/06/19 03:49:22;;;;;;;3.17;2.87;;;20.90;99.90;;;;;;5018123;28;20486;-73
2023/06/19 03:51:49;;;;;;;3.40;2.90;;;20.90;99.90;;;;;;5025953;28;20850;-74
2023/06/19 03:54:16;;;;;;;3.23;2.90;;;20.90;99.90;;;;;;5023588;28;20464;-73
2023/06/19 03:56:44;;;;;;;3.57;2.47;;;20.90;99.90;;;;;;5024571;28;20483;-72
2023/06/19 03:59:11;;;;;;;3.43;3.13;;;20.90;99.90;;;;;;5022038;28;20482;-73
2023/06/19 04:01:37;;;;;;;3.33;2.40;;;20.80;99.90;;;;;;5024006;28;20460;-73
2023/06/19 04:04:04;;;;;;;2.37;2.13;;;20.80;99.90;;;;;;5023771;28;20466;-73
2023/06/19 04:06:31;;;;;;;2.50;2.30;;;20.70;99.90;;;;;;5023376;28;20464;-73
2023/06/19 04:08:58;;;;;;;4.00;3.30;;;20.70;99.90;;;;;;5022355;28;20487;-74
2023/06/19 04:11:25;;;;;;;3.60;3.23;;;20.60;99.90;;;;;;5021435;28;20470;-73
2023/06/19 04:13:53;;;;;;;2.70;2.50;;;20.60;99.90;;;;;;5024170;28;20483;-73
2023/06/19 04:16:20;;;;;;;3.10;2.80;;;20.50;99.90;;;;;;5028256;28;20462;-73
2023/06/19 04:18:46;;;;;;;2.63;2.40;;;20.40;99.90;;;;;;5023364;28;20492;-73
2023/06/19 04:21:13;;;;;;;3.00;2.80;;;20.40;99.90;;;;;;5025515;28;20469;-74
2023/06/19 04:23:40;;;;;;;3.03;2.60;;;20.30;99.90;;;;;;5021275;28;20853;-73
2023/06/19 04:26:06;;;;;;;3.40;2.70;;;20.30;99.90;;;;;;5021870;28;20473;-76
2023/06/19 04:28:33;;;;;;;3.07;2.77;;;20.30;99.90;;;;;;5043082;28;20823;-76
2023/06/19 04:31:01;;;;;;;3.97;3.47;;;20.30;99.90;;;;;;5017257;28;20460;-75
2023/06/19 04:33:29;;;;;;;3.03;2.70;;;20.30;99.90;;;;;;5025695;28;20458;-76
2023/06/19 04:35:55;;;;;;;2.93;2.63;;;20.30;99.90;;;;;;5026160;28;20557;-75
2023/06/19 04:38:23;;;;;;;9.23;3.07;;;20.20;99.90;;;;;;5027976;28;20891;-75
2023/06/19 04:40:50;;;;;;;3.00;2.57;;;20.20;99.90;;;;;;5027144;28;20469;-76
2023/06/19 04:43:17;;;;;;;2.93;2.63;;;20.10;99.90;;;;;;5027088;28;21143;-76
2023/06/19 04:45:44;;;;;;;3.10;2.80;;;20.10;99.90;;;;;;5029041;28;20468;-76
2023/06/19 04:48:12;;;;;;;3.00;2.70;;;20.10;99.90;;;;;;5029619;28;20485;-75
2023/06/19 04:50:39;;;;;;;2.90;2.60;;;20.10;99.90;;;;;;5029082;28;20491;-75
2023/06/19 04:53:06;;;;;;;3.60;3.07;;;20.10;99.90;;;;;;5030193;28;20470;-76
2023/06/19 04:55:33;;;;;;;2.63;2.43;;;20.10;99.90;;;;;;5033130;28;20505;-77
2023/06/19 04:58:00;;;;;;;2.87;2.43;;;20.10;99.90;;;;;;5032844;28;20995;-75
2023/06/19 05:00:26;;;;;;;2.83;2.63;;;20.10;99.90;;;;;;5032867;28;20477;-76
2023/06/19 05:02:53;;;;;;;2.63;2.40;;;20.10;99.90;;;;;;5032559;28;20957;-75
2023/06/19 05:05:21;;;;;;;3.33;3.00;;;20.10;99.90;;;;;;5032730;28;21002;-76
2023/06/19 05:07:48;;;;;;;3.50;3.20;;;20.10;99.90;;;;;;5032844;28;20813;-76
2023/06/19 05:10:15;;;;;;;2.53;2.33;;;20.10;99.90;;;;;;5032864;28;20474;-75
2023/06/19 05:12:41;;;;;;;3.27;2.53;;;20.10;99.90;;;;;;5032438;28;20548;-76
2023/06/19 05:15:09;;;;;;;2.90;2.70;;;20.10;99.90;;;;;;5032856;28;20466;-75
2023/06/19 05:17:38;;;;;;;2.53;2.33;;;20.10;99.90;;;;;;5032625;28;20486;-76
2023/06/19 05:20:07;;;;;;;3.73;2.33;;;20.10;99.90;;;;;;5032752;28;20480;-76
2023/06/19 05:22:36;;;;;;;2.50;2.20;;;20.10;99.90;;;;;;5048627;28;20842;-75
2023/06/19 05:25:03;;;;;;;2.03;1.90;;;20.10;99.90;;;;;;5052494;28;20466;-75
2023/06/19 05:27:29;;;;;;;3.00;2.70;;;20.20;99.90;;;;;;5052390;28;20521;-76
2023/06/19 05:29:56;;;;;;;2.50;2.30;;;20.20;99.90;;;;;;5052219;28;20477;-76
2023/06/19 05:32:23;;;;;;;3.10;2.80;;;20.30;99.90;;;;;;5052012;28;20829;-75
2023/06/19 05:34:50;;;;;;;3.10;2.57;;;20.30;99.90;;;;;;5041814;28;20468;-75
2023/06/19 05:37:16;;;;;;;3.83;2.90;;;20.30;99.90;;;;;;5037832;28;20501;-75
2023/06/19 05:39:45;;;;;;;2.80;2.47;;;20.30;99.90;;;;;;5034907;28;20481;-76
2023/06/19 05:42:11;;;;;;;3.00;2.70;;;20.40;99.90;;;;;;5032109;28;20471;-75
2023/06/19 05:44:38;;;;;;;3.17;2.67;;;20.40;99.90;;;;;;5032871;28;20464;-75
2023/06/19 05:47:05;;;;;;;2.73;2.50;;;20.40;99.90;;;;;;5028433;28;21105;-75
2023/06/19 05:49:32;;;;;;;3.97;3.10;;;20.50;99.90;;;;;;5052191;28;20487;-75
2023/06/19 05:51:59;;;;;;;3.00;2.70;;;20.60;99.90;;;;;;5051815;28;20892;-75
2023/06/19 05:54:25;;;;;;;3.93;2.80;;;20.80;99.90;;;;;;5048489;28;20588;-75
2023/06/19 05:56:54;;;;;;;2.80;2.57;;;20.80;99.90;;;;;;5046878;28;20461;-75
2023/06/19 05:59:21;;;;;;;2.97;2.40;;;20.90;99.90;;;;;;5051342;28;20582;-75
2023/06/19 06:01:50;;;;;;;3.33;2.20;;;21.00;99.90;;;;;;5049751;28;20471;-75
2023/06/19 06:04:17;;;;;;;2.80;2.60;;;21.00;99.90;;;;;;5049873;28;20523;-76
2023/06/19 06:06:43;;;;;;;2.63;2.43;;;21.00;99.90;;;;;;5051206;28;20535;-75
2023/06/19 06:09:11;;;;;;;2.60;2.40;;;21.00;99.90;;;;;;5051639;28;20481;-75
2023/06/19 06:11:38;;;;;;;2.37;2.17;;;21.00;99.90;;;;;;5051600;28;20464;-76
2023/06/19 06:14:06;;;;;;;2.50;2.30;;;21.00;99.90;;;;;;5051506;28;20466;-75
2023/06/19 06:16:33;;;;;;;2.73;2.50;;;21.10;99.90;;;;;;5051570;28;20875;-75
2023/06/19 06:19:00;;;;;;;2.70;2.37;;;21.10;99.90;;;;;;5051076;28;20488;-75
2023/06/19 06:21:26;;;;;;;3.00;2.70;;;21.10;99.90;;;;;;5045408;28;20797;-75
2023/06/19 06:23:54;;;;;;;2.53;2.33;;;21.20;99.90;;;;;;5050024;28;20470;-75
2023/06/19 06:26:21;;;;;;;2.07;1.93;;;21.20;99.90;;;;;;5051564;28;20849;-75
2023/06/19 06:28:48;;;;;;;2.33;2.13;;;21.30;99.90;;;;;;5051370;28;20565;-75
2023/06/19 06:31:16;;;;;;;2.90;2.60;;;21.40;99.90;;;;;;5051472;28;20465;-75
2023/06/19 06:33:43;;;;;;;2.40;2.20;;;21.60;99.90;;;;;;5051331;28;20988;-75
2023/06/19 06:36:09;;;;;;;2.90;2.70;;;21.70;99.90;;;;;;5051065;28;20460;-75
2023/06/19 06:38:36;;;;;;;2.60;2.40;;;21.80;99.90;;;;;;5051570;28;20891;-76
2023/06/19 06:41:03;;;;;;;3.50;2.47;;;21.90;99.90;;;;;;5051374;28;20954;-76
2023/06/19 06:43:30;;;;;;;2.57;2.27;;;22.00;99.90;;;;;;5051501;28;20465;-75
2023/06/19 06:45:56;;;;;;;2.63;2.43;;;22.10;99.90;;;;;;5051489;28;20460;-75
2023/06/19 06:48:24;;;;;;;2.33;2.13;;;22.20;99.90;;;;;;5043863;28;20479;-75
2023/06/19 06:50:52;;;;;;;2.60;2.40;;;22.30;99.90;;;;;;5052057;28;20974;-76
2023/06/19 06:53:19;;;;;;;2.70;2.30;;;22.40;99.90;;;;;;5051906;28;20481;-75
2023/06/19 06:55:46;;;;;;;2.60;2.30;;;22.40;99.90;;;;;;5043476;28;20465;-75
2023/06/19 06:58:14;;;;;;;2.63;2.43;;;22.40;99.90;;;;;;5031780;28;20487;-75
2023/06/19 07:00:40;;;;;;;2.30;2.10;;;22.30;99.90;;;;;;5032239;28;20562;-75
2023/06/19 07:03:08;;;;;;;2.27;2.07;;;22.30;99.90;;;;;;5031359;28;20461;-76
2023/06/19 07:05:36;;;;;;;2.63;2.43;;;22.30;99.90;;;;;;5031528;28;20478;-75
2023/06/19 07:08:03;;;;;;;2.53;2.33;;;22.30;99.90;;;;;;5031583;28;23123;-75
2023/06/19 07:10:30;;;;;;;2.13;1.93;;;22.30;99.90;;;;;;5030965;28;20460;-76
2023/06/19 07:12:57;;;;;;;2.83;2.63;;;22.20;99.90;;;;;;5030528;28;20950;-75
2023/06/19 07:15:23;;;;;;;2.20;2.00;;;22.20;99.90;;;;;;5030916;28;20468;-75
2023/06/19 07:17:50;;;;;;;2.70;2.50;;;22.20;99.90;;;;;;5030774;28;20575;-75
2023/06/19 07:20:17;;;;;;;2.47;2.30;;;22.20;99.90;;;;;;5025881;28;20477;-75
2023/06/19 07:22:46;;;;;;;2.57;2.37;;;22.20;99.90;;;;;;5030237;28;20484;-75
2023/06/19 07:25:14;;;;;;;2.17;1.97;;;22.30;99.90;;;;;;5030689;28;20475;-75
2023/06/19 07:27:42;;;;;;;2.37;2.17;;;22.40;99.90;;;;;;5029763;28;20464;-75
2023/06/19 07:30:10;;;;;;;4.73;2.77;;;22.50;99.90;;;;;;5035777;28;20491;-76
2023/06/19 07:32:37;;;;;;;2.47;2.27;;;22.60;99.90;;;;;;5050238;28;20460;-75
2023/06/19 07:35:04;;;;;;;2.33;2.13;;;22.70;99.90;;;;;;5049252;28;20954;-75
2023/06/19 07:37:31;;;;;;;2.53;2.33;;;22.80;99.90;;;;;;5050373;28;20484;-75
2023/06/19 07:39:59;;;;;;;2.80;2.20;;;23.00;99.90;;;;;;5049452;28;20506;-75
2023/06/19 07:42:27;;;;;;;2.23;2.03;;;23.10;99.90;;;;;;5049161;28;20503;-75
2023/06/19 07:44:54;;;;;;;3.20;2.53;;;23.20;99.90;;;;;;5049855;28;20458;-74
2023/06/19 07:47:21;;;;;;;2.90;2.20;;;23.30;99.90;;;;;;5049941;28;20456;-75
2023/06/19 07:49:48;;;;;;;2.67;2.40;;;23.40;99.90;;;;;;5049725;28;20492;-75
2023/06/19 07:52:14;;;;;;;2.27;2.07;;;23.60;99.90;;;;;;5049652;28;20464;-75
2023/06/19 07:54:55;;;;;;;2.47;2.27;;;23.80;99.90;;;;;;5034448;28;20525;-75
2023/06/19 07:57:25;;;;;;;2.03;1.93;;;23.80;99.90;;;;;;5041370;28;20458;-75
2023/06/19 07:59:53;;;;;;;2.83;2.63;;;23.70;99.90;;;;;;5049730;28;20494;-75
2023/06/19 08:02:21;;;;;;;2.90;2.60;;;23.50;99.90;;;;;;5036494;28;20556;-75
2023/06/19 08:04:48;;;;;;;2.60;2.40;;;23.40;99.90;;;;;;5028980;28;20975;-75
2023/06/19 08:07:15;;;;;;;2.80;2.60;;;23.40;99.90;;;;;;5029816;28;20466;-75
2023/06/19 08:09:42;;;;;;;2.83;2.63;;;23.40;99.90;;;;;;5029941;28;20574;-75
2023/06/19 08:12:09;;;;;;;2.40;2.20;;;23.40;99.90;;;;;;5036967;28;20574;-75
2023/06/19 08:17:13;;;;;;;2.73;2.53;;;23.40;99.90;;;;;;4939683;22;20488;-76
2023/06/19 08:19:39;;;;;;;2.77;2.57;;;23.40;99.90;;;;;;5028313;28;20493;-76
2023/06/19 08:22:06;;;;;;;3.03;2.80;;;23.40;99.90;;;;;;5029051;28;20581;-76
2023/06/19 08:24:33;;;;;;;3.00;2.70;;;23.30;99.90;;;;;;5028770;28;20954;-76
2023/06/19 08:27:00;;;;;;;3.20;2.90;;;23.30;99.90;;;;;;5029307;28;20462;-76
2023/06/19 08:29:26;;;;;;;2.33;2.13;;;23.30;99.90;;;;;;5032240;28;20480;-76
2023/06/19 08:31:53;;;;;;;2.93;2.63;;;23.30;99.90;;;;;;5032853;28;20557;-76
2023/06/19 08:34:21;;;;;;;3.50;2.60;;;23.40;99.90;;;;;;5032970;28;20461;-76
2023/06/19 08:36:48;;;;;;;3.10;2.90;;;23.50;99.90;;;;;;5033157;28;20964;-76
2023/06/19 08:39:15;;;;;;;3.20;2.90;;;23.70;99.90;;;;;;5032946;28;20493;-76
2023/06/19 08:41:42;;;;;;;2.37;2.17;;;23.80;99.90;;;;;;5032611;28;20845;-76
2023/06/19 08:44:09;;;;;;;3.17;2.87;;;23.90;99.90;;;;;;5033070;28;20473;-76
2023/06/19 08:46:37;;;;;;;2.57;2.37;;;24.00;99.90;;;;;;5032957;28;20465;-76
2023/06/19 08:49:06;;;;;;;2.73;2.53;;;24.10;99.90;;;;;;5033023;28;20500;-76
2023/06/19 08:51:34;;;;;;;2.50;2.30;;;24.20;99.90;;;;;;5036487;28;20519;-76
2023/06/19 08:54:04;;;;;;;3.43;3.13;;;24.30;99.90;;;;;;5034657;28;20465;-76
2023/06/19 08:56:33;;;;;;;2.80;2.37;;;24.50;99.90;;;;;;5032861;28;20467;-76
2023/06/19 08:59:09;;;;;;;3.00;2.70;;;24.60;99.90;;;;;;5032767;28;20494;-76
2023/06/19 09:01:35;;;;;;;2.90;2.70;;;24.80;99.90;;;;;;5032535;28;20526;-76
2023/06/19 09:04:09;;;;;;;3.00;2.70;;;24.90;99.90;;;;;;5032557;28;21008;-76
2023/06/19 09:06:38;;;;;;;2.50;2.30;;;24.90;99.90;;;;;;5032168;28;20470;-76
2023/06/19 09:09:10;;;;;;;2.47;2.23;;;25.00;99.90;;;;;;5050618;28;20977;-76
2023/06/19 09:11:39;;;;;;;3.20;2.90;;;25.20;99.90;;;;;;5052515;28;20724;-76
2023/06/19 09:14:06;;;;;;;4.07;2.00;;;25.30;99.90;;;;;;5052248;28;20888;-76
2023/06/19 09:16:38;;;;;;;2.30;2.10;;;25.60;99.90;;;;;;5051511;28;20469;-76
2023/06/19 09:19:05;;;;;;;2.43;2.23;;;25.70;99.90;;;;;;5049844;28;20481;-76
2023/06/19 09:21:32;;;;;;;2.87;2.33;;;25.50;99.90;;;;;;5032444;28;20467;-76
2023/06/19 09:24:05;;;;;;;2.67;2.47;;;25.40;99.90;;;;;;5032276;28;20467;-76
2023/06/19 09:26:32;;;;;;;3.17;2.80;;;25.40;99.90;;;;;;5113771;22;20486;-72
2023/06/19 09:28:59;;;;;;;2.80;2.23;;;25.30;99.90;;;;;;5067652;28;20486;-72
2023/06/19 09:31:33;;;;;;;3.00;2.70;;;25.20;99.90;;;;;;5072616;28;20958;-71
2023/06/19 09:34:00;;;;;;;2.70;2.50;;;25.10;99.90;;;;;;5072590;28;20462;-72
2023/06/19 09:36:27;;;;;;;2.93;2.33;;;25.10;99.90;;;;;;5057942;28;20970;-68
2023/06/19 09:38:55;;;;;;;2.30;2.10;;;25.00;99.90;;;;;;5052159;28;21010;-71
2023/06/19 09:41:25;;;;;;;2.43;2.23;;;24.90;99.90;;;;;;5071476;28;20466;-72
2023/06/19 09:43:57;;;;;;;2.70;2.50;;;24.90;99.80;;;;;;5072515;28;20984;-72
2023/06/19 09:46:27;;;;;;;3.03;2.40;;;24.90;99.90;;;;;;5061498;28;20469;-71
2023/06/19 09:48:58;;;;;;;2.87;2.60;;;25.00;99.90;;;;;;5069395;28;20481;-70
2023/06/19 09:51:30;;;;;;;2.80;2.60;;;25.10;99.90;;;;;;5071806;28;20504;-71
2023/06/19 09:53:59;;;;;;;2.50;2.30;;;25.40;99.90;;;;;;5072117;28;20846;-72
2023/06/19 09:56:28;;;;;;;2.80;2.40;;;25.70;99.50;;;;;;5071845;28;20515;-72
2023/06/19 09:59:00;;;;;;;2.40;2.20;;;25.80;99.80;;;;;;5071677;28;20493;-69
2023/06/19 10:01:29;;;;;;;2.53;2.33;;;25.80;99.90;;;;;;5072158;28;21026;-70
2023/06/19 10:04:07;;;;;;;2.27;2.00;;;26.00;99.90;;;;;;5071704;28;20467;-69
2023/06/19 10:06:44;;;;;;;2.50;2.30;;;26.30;99.90;;;;;;5072392;28;20556;-70
2023/06/19 10:09:12;;;;;;;3.20;2.90;;;26.50;99.90;;;;;;5071644;28;20475;-70
2023/06/19 10:11:53;;;;;;;2.80;2.60;;;26.50;99.90;;;;;;5072035;28;20457;-70
2023/06/19 10:14:21;;;;;;;2.53;2.33;;;26.70;99.00;;;;;;5042956;28;20464;-70
2023/06/19 10:16:48;;;;;;;2.63;2.43;;;26.60;99.00;;;;;;5067591;28;20553;-70
2023/06/19 10:19:17;;;;;;;3.20;2.90;;;26.70;99.90;;;;;;5071108;28;20481;-70
2023/06/19 10:21:48;;;;;;;2.87;2.57;;;26.70;99.90;;;;;;5071855;28;20468;-72
2023/06/19 10:24:19;;;;;;;2.90;2.70;;;26.80;99.90;;;;;;5070771;28;20555;-71
2023/06/19 10:27:00;;;;;;;2.60;2.40;;;26.90;99.90;;;;;;5071601;28;20474;-71
2023/06/19 10:29:28;;;;;;;3.67;2.97;;;26.90;99.90;;;;;;5070987;28;20539;-71
2023/06/19 10:31:56;;;;;;;3.43;3.13;;;26.80;99.90;;;;;;5071470;28;20841;-72
2023/06/19 10:34:34;;;;;;;2.60;2.40;;;26.70;99.90;;;;;;5070650;28;20494;-71
2023/06/19 10:37:01;;;;;;;3.10;2.80;;;26.50;99.90;;;;;;5071224;28;20461;-72
2023/06/19 10:39:28;;;;;;;2.80;2.60;;;26.40;99.90;;;;;;5071166;28;20485;-72
2023/06/19 10:41:56;;;;;;;2.93;2.70;;;26.30;99.90;;;;;;5070772;28;20488;-70
2023/06/19 10:44:26;;;;;;;3.27;2.97;;;26.30;99.90;;;;;;5070896;28;20515;-72
2023/06/19 10:46:54;;;;;;;3.73;3.33;;;26.40;99.90;;;;;;5071348;28;20472;-72
2023/06/19 10:49:22;;;;;;;2.93;2.63;;;26.50;99.90;;;;;;5070767;28;20491;-71
2023/06/19 10:51:50;;;;;;;2.50;2.30;;;26.60;99.90;;;;;;5070746;28;20460;-68
2023/06/19 10:54:16;;;;;;;2.63;2.43;;;26.70;99.90;;;;;;5069938;28;20488;-69
2023/06/19 10:56:43;;;;;;;2.70;2.50;;;26.70;99.90;;;;;;5063971;28;20476;-69
2023/06/19 10:59:11;;;;;;;2.93;2.73;;;26.70;99.90;;;;;;5049679;28;20485;-67
2023/06/19 11:01:42;;;;;;;2.83;2.53;;;26.70;99.90;;;;;;5050647;28;20536;-70
2023/06/19 11:04:10;;;;;;;2.97;2.67;;;26.60;99.90;;;;;;5050106;28;20466;-70
2023/06/19 11:06:38;;;;;;;3.33;3.10;;;26.70;99.90;;;;;;5049547;28;20510;-67
2023/06/19 11:09:04;;;;;;;3.20;2.90;;;26.60;99.90;;;;;;5050234;28;20481;-69
2023/06/19 11:11:39;;;;;;;3.10;2.80;;;26.30;99.90;;;;;;5050036;28;20470;-69
2023/06/19 11:14:07;;;;;;;3.30;3.00;;;26.20;99.90;;;;;;5049989;28;20461;-69
2023/06/19 11:16:33;;;;;;;3.97;3.20;;;26.10;99.90;;;;;;5050130;28;20468;-71
2023/06/19 11:19:03;;;;;;;3.00;2.80;;;26.10;99.90;;;;;;5049328;28;20894;-70
2023/06/19 11:21:38;;;;;;;3.47;3.17;;;26.20;99.90;;;;;;5055512;28;20920;-69
2023/06/19 11:24:06;;;;;;;2.87;2.63;;;26.30;99.90;;;;;;5070119;28;20463;-69
2023/06/19 11:26:36;;;;;;;2.83;2.63;;;26.70;99.90;;;;;;5062899;28;20473;-70
2023/06/19 11:29:04;;;;;;;2.87;2.67;;;26.80;99.90;;;;;;5050033;28;20908;-70
2023/06/19 11:31:30;;;;;;;3.83;3.17;;;26.90;99.90;;;;;;5050163;28;20849;-72
2023/06/19 11:33:59;;;;;;;3.10;2.80;;;27.00;99.70;;;;;;5050166;28;20468;-72
2023/06/19 11:36:27;;;;;;;3.27;2.97;;;27.10;99.90;;;;;;5063029;28;20548;-72
2023/06/19 11:38:54;;;;;;;3.37;3.07;;;27.20;99.90;;;;;;5069988;28;20581;-71
2023/06/19 11:41:28;;;;;;;3.00;2.60;;;27.40;99.90;;;;;;5049266;28;20475;-72
2023/06/19 11:44:01;;;;;;;2.93;2.73;;;27.50;99.90;;;;;;5048788;28;20470;-71
2023/06/19 11:46:31;;;;;;;2.80;2.60;;;27.50;99.90;;;;;;5049546;28;20490;-72
2023/06/19 11:49:08;;;;;;;3.40;3.10;;;27.60;99.90;;;;;;5049621;28;20876;-71
2023/06/19 11:51:36;;;;;;;3.67;3.30;;;27.60;99.90;;;;;;5049510;28;20514;-72
2023/06/19 11:54:03;;;;;;;3.20;2.90;;;27.60;99.90;;;;;;5049446;28;20459;-70
2023/06/19 11:56:30;;;;;;;3.80;2.80;;;27.70;99.90;;;;;;5049215;28;20960;-70
2023/06/19 11:58:56;;;;;;;3.43;3.13;;;27.70;99.90;;;;;;5049776;28;20496;-70
2023/06/19 12:01:23;;;;;;;3.37;3.07;;;27.80;99.90;;;;;;5049932;28;20462;-70
2023/06/19 12:03:50;;;;;;;3.20;2.90;;;27.80;99.90;;;;;;5049404;28;20471;-71
2023/06/19 12:06:18;;;;;;;3.40;3.10;;;27.70;99.90;;;;;;5049104;28;20466;-71
2023/06/19 12:08:46;;;;;;;3.40;3.10;;;27.60;99.90;;;;;;5049726;28;20529;-70
2023/06/19 12:11:13;;;;;;;3.60;2.93;;;27.60;99.90;;;;;;5052303;28;20847;-70
2023/06/19 12:13:40;;;;;;;2.90;2.70;;;27.80;99.90;;;;;;5069988;28;20918;-69
2023/06/19 12:16:07;;;;;;;3.03;2.57;;;28.00;99.90;;;;;;5070072;28;20988;-69
2023/06/19 12:18:34;;;;;;;3.40;2.60;;;28.20;99.90;;;;;;5069148;28;20478;-69
2023/06/19 12:21:01;;;;;;;3.07;2.77;;;28.30;99.90;;;;;;5070320;28;20465;-71
2023/06/19 12:23:27;;;;;;;3.90;3.03;;;28.40;99.90;;;;;;5069406;28;20465;-70
2023/06/19 12:25:56;;;;;;;3.33;3.03;;;28.30;99.90;;;;;;5068729;28;20469;-70
2023/06/19 12:28:22;;;;;;;3.13;2.80;;;28.30;99.90;;;;;;5069680;28;20482;-70
2023/06/19 12:30:51;;;;;;;3.30;3.10;;;28.50;99.60;;;;;;5069241;28;20970;-71
2023/06/19 12:33:18;;;;;;;2.80;2.60;;;28.60;99.90;;;;;;5069559;28;20884;-70
2023/06/19 12:35:46;;;;;;;3.20;2.90;;;28.80;99.60;;;;;;5069815;28;20455;-69
2023/06/19 12:38:12;;;;;;;2.80;2.60;;;28.90;99.20;;;;;;5069853;28;20478;-70
2023/06/19 12:40:39;;;;;;;3.60;3.30;;;29.10;97.90;;;;;;5054959;28;20471;-70
2023/06/19 12:43:07;;;;;;;3.07;2.87;;;29.10;97.30;;;;;;5049447;28;20463;-68
2023/06/19 12:45:34;;;;;;;3.40;2.73;;;29.10;98.00;;;;;;5049235;28;20456;-68
2023/06/19 12:48:01;;;;;;;3.20;2.77;;;29.10;98.30;;;;;;5049528;28;20460;-69
2023/06/19 12:50:27;;;;;;;2.60;2.40;;;29.10;98.50;;;;;;5049797;28;20455;-70
2023/06/19 12:52:54;;;;;;;3.23;2.93;;;29.20;98.80;;;;;;5049803;28;20475;-70